Map

Track Data

SID SEASON NUMBER BASIN SUBBASIN NAME ISO_TIME NATURE LAT LON WMO_WIND WMO_PRES WMO_AGENCY TRACK_TYPE DIST2LAND LANDFALL IFLAG USA_AGENCY USA_ATCF_ID USA_LAT USA_LON USA_RECORD USA_STATUS USA_WIND USA_PRES USA_SSHS USA_R34_NE USA_R34_SE USA_R34_SW USA_R34_NW USA_R50_NE USA_R50_SE USA_R50_SW USA_R50_NW USA_R64_NE USA_R64_SE USA_R64_SW USA_R64_NW USA_POCI USA_ROCI USA_RMW USA_EYE TOKYO_LAT TOKYO_LON TOKYO_GRADE TOKYO_WIND TOKYO_PRES TOKYO_R50_DIR TOKYO_R50_LONG TOKYO_R50_SHORT TOKYO_R30_DIR TOKYO_R30_LONG TOKYO_R30_SHORT TOKYO_LAND CMA_LAT CMA_LON CMA_CAT CMA_WIND CMA_PRES HKO_LAT HKO_LON HKO_CAT HKO_WIND HKO_PRES NEWDELHI_LAT NEWDELHI_LON NEWDELHI_GRADE NEWDELHI_WIND NEWDELHI_PRES NEWDELHI_CI NEWDELHI_DP NEWDELHI_POCI REUNION_LAT REUNION_LON REUNION_TYPE REUNION_WIND REUNION_PRES REUNION_TNUM REUNION_CI REUNION_RMW REUNION_R34_NE REUNION_R34_SE REUNION_R34_SW REUNION_R34_NW REUNION_R50_NE REUNION_R50_SE REUNION_R50_SW REUNION_R50_NW REUNION_R64_NE REUNION_R64_SE REUNION_R64_SW REUNION_R64_NW BOM_LAT BOM_LON BOM_TYPE BOM_WIND BOM_PRES BOM_TNUM BOM_CI BOM_RMW BOM_R34_NE BOM_R34_SE BOM_R34_SW BOM_R34_NW BOM_R50_NE BOM_R50_SE BOM_R50_SW BOM_R50_NW BOM_R64_NE BOM_R64_SE BOM_R64_SW BOM_R64_NW BOM_ROCI BOM_POCI BOM_EYE BOM_POS_METHOD BOM_PRES_METHOD NADI_LAT NADI_LON NADI_CAT NADI_WIND NADI_PRES WELLINGTON_LAT WELLINGTON_LON WELLINGTON_WIND WELLINGTON_PRES DS824_LAT DS824_LON DS824_STAGE DS824_WIND DS824_PRES TD9636_LAT TD9636_LON TD9636_STAGE TD9636_WIND TD9636_PRES TD9635_LAT TD9635_LON TD9635_WIND TD9635_PRES TD9635_ROCI NEUMANN_LAT NEUMANN_LON NEUMANN_CLASS NEUMANN_WIND NEUMANN_PRES MLC_LAT MLC_LON MLC_CLASS MLC_WIND MLC_PRES USA_GUST BOM_GUST BOM_GUST_PER REUNION_GUST REUNION_GUST_PER USA_SEAHGT USA_SEARAD_NE USA_SEARAD_SE USA_SEARAD_SW USA_SEARAD_NW STORM_SPEED STORM_DIR
1899289N26283 1899 42 NA NA NOT_NAMED 1899-10-15 12:00:00 TS 25.5000 -77.5000 30 hurdat_atl main 67 67 O_____________ hurdat_atl AL081899 25.5000 -77.5000 TD 30 -1 12 66
1899289N26283 1899 42 NA NA NOT_NAMED 1899-10-15 15:00:00 TS 25.7430 -76.8930 main 129 129 P_____________ AL081899 25.7430 -76.8930 TD 30 -1 12 65
1899289N26283 1899 42 NA NA NOT_NAMED 1899-10-15 18:00:00 TS 26.0000 -76.3000 30 hurdat_atl main 197 197 O_____________ hurdat_atl AL081899 26.0000 -76.3000 TD 30 -1 12 62
1899289N26283 1899 42 NA NA NOT_NAMED 1899-10-15 21:00:00 TS 26.2848 -75.7347 main 266 266 P_____________ AL081899 26.2848 -75.7347 TD 32 -1 12 59
1899289N26283 1899 42 NA NA NOT_NAMED 1899-10-16 00:00:00 TS 26.6000 -75.2000 35 hurdat_atl main 326 326 O_____________ hurdat_atl AL081899 26.6000 -75.2000 TS 35 0 12 55
1899289N26283 1899 42 NA NA NOT_NAMED 1899-10-16 03:00:00 TS 26.9425 -74.6699 main 386 386 P_____________ AL081899 26.9425 -74.6699 TS 35 0 11 52
1899289N26283 1899 42 NA NA NOT_NAMED 1899-10-16 06:00:00 TS 27.3000 -74.2000 35 hurdat_atl main 451 451 O_____________ hurdat_atl AL081899 27.3000 -74.2000 TS 35 0 11 49
1899289N26283 1899 42 NA NA NOT_NAMED 1899-10-16 09:00:00 TS 27.6425 -73.7751 main 502 502 P_____________ AL081899 27.6425 -73.7751 TS 37 0 9 42
1899289N26283 1899 42 NA NA NOT_NAMED 1899-10-16 12:00:00 TS 28.0000 -73.5000 40 hurdat_atl main 552 552 O_____________ hurdat_atl AL081899 28.0000 -73.5000 TS 40 0 8 25
1899289N26283 1899 42 NA NA NOT_NAMED 1899-10-16 15:00:00 TS 28.3846 -73.3877 main 586 586 P_____________ AL081899 28.3846 -73.3877 TS 40 0 8 1
1899289N26283 1899 42 NA NA NOT_NAMED 1899-10-16 18:00:00 TS 28.8000 -73.5000 40 hurdat_atl main 607 607 O_____________ hurdat_atl AL081899 28.8000 -73.5000 TS 40 0 9 336
1899289N26283 1899 42 NA NA NOT_NAMED 1899-10-16 21:00:00 TS 29.2426 -73.8248 main 617 584 P_____________ AL081899 29.2426 -73.8248 TS 40 0 11 322
1899289N26283 1899 42 NA NA NOT_NAMED 1899-10-17 00:00:00 TS 29.7000 -74.3000 40 hurdat_atl main 584 519 O_____________ hurdat_atl AL081899 29.7000 -74.3000 TS 40 0 12 317
1899289N26283 1899 42 NA NA NOT_NAMED 1899-10-17 03:00:00 TS 30.1502 -74.8074 main 510 446 P_____________ AL081899 30.1502 -74.8074 TS 40 0 13 316
1899289N26283 1899 42 NA NA NOT_NAMED 1899-10-17 06:00:00 TS 30.6000 -75.3000 40 hurdat_atl main 446 388 O_____________ hurdat_atl AL081899 30.6000 -75.3000 TS 40 0 12 319
1899289N26283 1899 42 NA NA NOT_NAMED 1899-10-17 09:00:00 TS 31.0424 -75.7101 main 388 326 P_____________ AL081899 31.0424 -75.7101 TS 37 0 11 326
1899289N26283 1899 42 NA NA NOT_NAMED 1899-10-17 12:00:00 TS 31.5000 -76.0000 35 hurdat_atl main 326 270 O_____________ hurdat_atl AL081899 31.5000 -76.0000 TS 35 0 10 337
1899289N26283 1899 42 NA NA NOT_NAMED 1899-10-17 15:00:00 TS 31.9923 -76.1898 main 270 228 P_____________ AL081899 31.9923 -76.1898 TS 35 0 10 350
1899289N26283 1899 42 NA NA NOT_NAMED 1899-10-17 18:00:00 TS 32.5000 -76.2000 35 hurdat_atl main 228 195 O_____________ hurdat_atl AL081899 32.5000 -76.2000 TS 35 0 10 8
1899289N26283 1899 42 NA NA NOT_NAMED 1899-10-17 21:00:00 TS 33.0000 -76.0178 main 195 152 P_____________ AL081899 33.0000 -76.0178 TS 32 -1 11 23
1899289N26283 1899 42 NA NA NOT_NAMED 1899-10-18 00:00:00 TS 33.5000 -75.7000 30 hurdat_atl main 152 127 O_____________ hurdat_atl AL081899 33.5000 -75.7000 TD 30 -1 11 28
1899289N26283 1899 42 NA NA NOT_NAMED 1899-10-18 03:00:00 TS 33.9998 -75.3869 main 127 120 P_____________ AL081899 33.9998 -75.3869 TD 30 -1 12 30
1899289N26283 1899 42 NA NA NOT_NAMED 1899-10-18 06:00:00 TS 34.5000 -75.0000 30 hurdat_atl main 126 119 O_____________ hurdat_atl AL081899 34.5000 -75.0000 TD 30 -1 12 34
1899289N26283 1899 42 NA NA NOT_NAMED 1899-10-18 09:00:00 TS 34.9995 -74.5591 main 119 119 P_____________ AL081899 34.9995 -74.5591 TD 27 -1 13 39
1899289N26283 1899 42 NA NA NOT_NAMED 1899-10-18 12:00:00 TS 35.5000 -74.0000 25 hurdat_atl main 139 139 O_____________ hurdat_atl AL081899 35.5000 -74.0000 TD 25 -1 14 46
1899289N26283 1899 42 NA NA NOT_NAMED 1899-10-18 15:00:00 TS 36.0013 -73.2948 main 198 198 P_____________ AL081899 36.0013 -73.2948 TD 25 -1 16 51
1899289N26283 1899 42 NA NA NOT_NAMED 1899-10-18 18:00:00 TS 36.5000 -72.5000 25 hurdat_atl main 279 O_____________ hurdat_atl AL081899 36.5000 -72.5000 TD 25 -1 16 52

About IBTrACS Database

This database is a web-friendly format of International Best Track Archive for Climate Stewardship (IBTrACS), a global best track data archive curated by NOAA dating back to 1842.

Updated: 2021-10-19